Time,TemperatureF,DewpointF,PressureIn,WindDirection,WindDirectionDegrees,WindSpeedMPH,WindSpeedGustMPH,Humidity,HourlyPrecipIn,Conditions,Clouds,dailyrainin,SolarRadiationWatts/m^2,SoftwareType,DateUTC
2013-04-21 00:01:00,61.0,60.0,-100.00,ENE,76,1.0,5.0,98,0.00,,,0.24,0.000000,,2013-04-21 10:01:00,
2013-04-21 00:22:00,61.0,60.0,-100.00,ENE,76,1.0,5.0,98,0.00,,,0.24,0.000000,,2013-04-21 10:22:00,
2013-04-21 00:33:00,61.0,60.0,-100.00,ENE,76,1.0,5.0,98,0.00,,,0.24,0.000000,,2013-04-21 10:33:00,
2013-04-21 00:42:00,61.0,60.0,-100.00,ENE,76,1.0,5.0,98,0.00,,,0.24,0.000000,,2013-04-21 10:42:00,
2013-04-21 00:52:00,61.0,60.0,-100.00,ENE,76,1.0,5.0,98,0.00,,,0.24,0.000000,,2013-04-21 10:52:00,
2013-04-21 01:01:00,61.0,60.0,-100.00,WSW,246,2.0,5.0,97,0.00,,,0.24,0.000000,,2013-04-21 11:01:00,
2013-04-21 01:34:00,61.0,60.0,-100.00,WSW,246,2.0,5.0,97,0.00,,,0.24,0.000000,,2013-04-21 11:34:00,
2013-04-21 01:42:00,61.0,60.0,-100.00,WSW,246,2.0,5.0,97,0.00,,,0.24,0.000000,,2013-04-21 11:42:00,
2013-04-21 01:52:00,61.0,60.0,-100.00,WSW,246,2.0,5.0,97,0.00,,,0.24,0.000000,,2013-04-21 11:52:00,
2013-04-21 02:01:00,61.0,60.0,-100.00,NNW,347,2.0,4.0,98,0.00,,,0.24,0.000000,,2013-04-21 12:01:00,
2013-04-21 02:22:00,61.0,60.0,-100.00,NNW,347,2.0,4.0,98,0.00,,,0.24,0.000000,,2013-04-21 12:22:00,
2013-04-21 02:32:00,61.0,60.0,-100.00,NNW,347,2.0,4.0,98,0.00,,,0.24,0.000000,,2013-04-21 12:32:00,
2013-04-21 02:42:00,61.0,60.0,-100.00,NNW,347,2.0,4.0,98,0.00,,,0.24,0.000000,,2013-04-21 12:42:00,
2013-04-21 02:52:00,61.0,60.0,-100.00,NNW,347,2.0,4.0,98,0.00,,,0.24,0.000000,,2013-04-21 12:52:00,
2013-04-21 03:01:00,62.0,61.0,-100.00,ENE,62,3.0,4.0,98,0.00,,,0.24,0.000000,,2013-04-21 13:01:00,
2013-04-21 03:32:00,62.0,61.0,-100.00,ENE,62,3.0,4.0,98,0.00,,,0.24,0.000000,,2013-04-21 13:32:00,
2013-04-21 03:42:00,62.0,61.0,-100.00,ENE,62,3.0,4.0,98,0.00,,,0.24,0.000000,,2013-04-21 13:42:00,
2013-04-21 03:52:00,62.0,61.0,-100.00,ENE,62,3.0,4.0,98,0.00,,,0.24,0.000000,,2013-04-21 13:52:00,
2013-04-21 04:01:00,62.0,61.0,-100.00,NNW,329,4.0,5.0,98,0.12,,,0.36,0.000000,,2013-04-21 14:01:00,
2013-04-21 04:22:00,62.0,61.0,-100.00,NNW,329,4.0,5.0,98,0.12,,,0.36,0.000000,,2013-04-21 14:22:00,
2013-04-21 04:32:00,62.0,61.0,-100.00,NNW,329,4.0,5.0,98,0.12,,,0.36,0.000000,,2013-04-21 14:32:00,
2013-04-21 04:42:00,62.0,61.0,-100.00,NNW,329,4.0,5.0,98,0.12,,,0.36,0.000000,,2013-04-21 14:42:00,
2013-04-21 04:52:00,62.0,61.0,-100.00,NNW,329,4.0,5.0,98,0.12,,,0.36,0.000000,,2013-04-21 14:52:00,
2013-04-21 05:01:00,61.0,60.0,-100.00,NNW,344,5.0,8.0,98,0.19,,,0.55,0.000000,,2013-04-21 15:01:00,
2013-04-21 05:22:00,61.0,60.0,-100.00,NNW,344,5.0,8.0,98,0.19,,,0.55,0.000000,,2013-04-21 15:22:00,
2013-04-21 05:33:00,61.0,60.0,-100.00,NNW,344,5.0,8.0,98,0.19,,,0.55,0.000000,,2013-04-21 15:33:00,
2013-04-21 05:43:00,61.0,60.0,-100.00,NNW,344,5.0,8.0,98,0.19,,,0.55,0.000000,,2013-04-21 15:43:00,
2013-04-21 05:53:00,61.0,60.0,-100.00,NNW,344,5.0,8.0,98,0.19,,,0.55,0.000000,,2013-04-21 15:53:00,
2013-04-21 06:01:00,61.0,60.0,-100.00,ENE,69,5.0,9.0,98,0.13,,,0.68,0.000000,,2013-04-21 16:01:00,
2013-04-21 06:23:00,61.0,60.0,-100.00,ENE,69,5.0,9.0,98,0.13,,,0.68,0.000000,,2013-04-21 16:23:00,
2013-04-21 06:33:00,61.0,60.0,-100.00,ENE,69,5.0,9.0,98,0.13,,,0.68,0.000000,,2013-04-21 16:33:00,
2013-04-21 06:42:00,61.0,60.0,-100.00,ENE,69,5.0,9.0,98,0.13,,,0.68,0.000000,,2013-04-21 16:42:00,
2013-04-21 06:52:00,61.0,60.0,-100.00,ENE,69,5.0,9.0,98,0.13,,,0.68,0.000000,,2013-04-21 16:52:00,
2013-04-21 07:01:00,61.0,61.0,-100.00,East,89,6.0,12.0,99,0.07,,,0.75,23.000000,,2013-04-21 17:01:00,
2013-04-21 07:32:00,61.0,61.0,-100.00,East,89,6.0,12.0,99,0.07,,,0.75,23.000000,,2013-04-21 17:32:00,
2013-04-21 07:42:00,61.0,61.0,-100.00,East,89,6.0,12.0,99,0.07,,,0.75,23.000000,,2013-04-21 17:42:00,
2013-04-21 07:52:00,61.0,61.0,-100.00,East,89,6.0,12.0,99,0.07,,,0.75,23.000000,,2013-04-21 17:52:00,
2013-04-21 08:01:00,62.0,62.0,-100.00,SE,138,6.0,15.0,99,0.11,,,0.86,70.000000,,2013-04-21 18:01:00,
2013-04-21 08:22:00,62.0,62.0,-100.00,SE,138,6.0,15.0,99,0.11,,,0.86,70.000000,,2013-04-21 18:22:00,
2013-04-21 08:33:00,62.0,62.0,-100.00,SE,138,6.0,15.0,99,0.11,,,0.86,70.000000,,2013-04-21 18:33:00,
2013-04-21 08:42:00,62.0,62.0,-100.00,SE,138,6.0,15.0,99,0.11,,,0.86,70.000000,,2013-04-21 18:42:00,
2013-04-21 08:52:00,62.0,62.0,-100.00,SE,138,6.0,15.0,99,0.11,,,0.86,70.000000,,2013-04-21 18:52:00,
2013-04-21 10:01:00,63.0,63.0,-100.00,SE,138,9.0,13.0,99,-99.99,,,1.04,147.000000,,2013-04-21 20:01:00,
2013-04-21 10:32:00,63.0,63.0,-100.00,SE,138,9.0,13.0,99,-99.99,,,1.04,147.000000,,2013-04-21 20:32:00,
2013-04-21 10:42:00,63.0,63.0,-100.00,SE,138,9.0,13.0,99,-99.99,,,1.04,147.000000,,2013-04-21 20:42:00,
2013-04-21 10:52:00,63.0,63.0,-100.00,SE,138,9.0,13.0,99,-99.99,,,1.04,147.000000,,2013-04-21 20:52:00,
2013-04-21 11:01:00,63.0,63.0,-100.00,SSE,147,6.0,12.0,99,0.02,,,1.06,318.000000,,2013-04-21 21:01:00,
2013-04-21 11:22:00,63.0,63.0,-100.00,SSE,147,6.0,12.0,99,0.02,,,1.06,318.000000,,2013-04-21 21:22:00,
2013-04-21 11:33:00,63.0,63.0,-100.00,SSE,147,6.0,12.0,99,0.02,,,1.06,318.000000,,2013-04-21 21:33:00,
2013-04-21 11:43:00,63.0,63.0,-100.00,SSE,147,6.0,12.0,99,0.02,,,1.06,318.000000,,2013-04-21 21:43:00,
2013-04-21 11:53:00,63.0,63.0,-100.00,SSE,147,6.0,12.0,99,0.02,,,1.06,318.000000,,2013-04-21 21:53:00,
2013-04-21 12:01:00,63.0,62.0,-100.00,ESE,113,7.0,13.0,98,0.01,,,1.07,382.000000,,2013-04-21 22:01:00,
2013-04-21 12:22:00,63.0,62.0,-100.00,ESE,113,7.0,13.0,98,0.01,,,1.07,382.000000,,2013-04-21 22:22:00,
2013-04-21 12:33:00,63.0,62.0,-100.00,ESE,113,7.0,13.0,98,0.01,,,1.07,382.000000,,2013-04-21 22:33:00,
2013-04-21 12:43:00,63.0,62.0,-100.00,ESE,113,7.0,13.0,98,0.01,,,1.07,382.000000,,2013-04-21 22:43:00,
2013-04-21 12:52:00,63.0,62.0,-100.00,ESE,113,7.0,13.0,98,0.01,,,1.07,382.000000,,2013-04-21 22:52:00,
2013-04-21 13:01:00,65.0,64.0,-100.00,SSE,162,6.0,11.0,97,0.01,,,1.08,557.000000,,2013-04-21 23:01:00,
2013-04-21 13:32:00,65.0,64.0,-100.00,SSE,162,6.0,11.0,97,0.01,,,1.08,557.000000,,2013-04-21 23:32:00,
2013-04-21 13:42:00,65.0,64.0,-100.00,SSE,162,6.0,11.0,97,0.01,,,1.08,557.000000,,2013-04-21 23:42:00,
2013-04-21 13:52:00,65.0,64.0,-100.00,SSE,162,6.0,11.0,97,0.01,,,1.08,557.000000,,2013-04-21 23:52:00,
2013-04-21 14:01:00,64.0,63.0,-100.00,ESE,117,6.0,12.0,98,0.01,,,1.09,327.000000,,2013-04-22 00:01:00,
2013-04-21 14:22:00,64.0,63.0,-100.00,ESE,117,6.0,12.0,98,0.01,,,1.09,327.000000,,2013-04-22 00:22:00,
2013-04-21 14:32:00,64.0,63.0,-100.00,ESE,117,6.0,12.0,98,0.01,,,1.09,327.000000,,2013-04-22 00:32:00,
2013-04-21 14:42:00,64.0,63.0,-100.00,ESE,117,6.0,12.0,98,0.01,,,1.09,327.000000,,2013-04-22 00:42:00,
2013-04-21 14:52:00,64.0,63.0,-100.00,ESE,117,6.0,12.0,98,0.01,,,1.09,327.000000,,2013-04-22 00:52:00,
2013-04-21 15:01:00,65.0,63.0,-100.00,SSE,150,5.0,10.0,94,0.00,,,1.09,310.000000,,2013-04-22 01:01:00,
2013-04-21 15:32:00,65.0,63.0,-100.00,SSE,150,5.0,10.0,94,0.00,,,1.09,310.000000,,2013-04-22 01:32:00,
2013-04-21 15:42:00,65.0,63.0,-100.00,SSE,150,5.0,10.0,94,0.00,,,1.09,310.000000,,2013-04-22 01:42:00,
2013-04-21 15:52:00,65.0,63.0,-100.00,SSE,150,5.0,10.0,94,0.00,,,1.09,310.000000,,2013-04-22 01:52:00,
2013-04-21 16:01:00,65.0,63.0,-100.00,SSE,155,5.0,10.0,93,0.00,,,1.09,314.000000,,2013-04-22 02:01:00,
2013-04-21 16:32:00,65.0,63.0,-100.00,SSE,155,5.0,10.0,93,0.00,,,1.09,314.000000,,2013-04-22 02:32:00,
2013-04-21 16:42:00,65.0,63.0,-100.00,SSE,155,5.0,10.0,93,0.00,,,1.09,314.000000,,2013-04-22 02:42:00,
2013-04-21 16:52:00,65.0,63.0,-100.00,SSE,155,5.0,10.0,93,0.00,,,1.09,314.000000,,2013-04-22 02:52:00,
2013-04-21 17:01:00,65.0,60.0,-100.00,ESE,102,3.0,9.0,85,0.00,,,1.09,211.000000,,2013-04-22 03:01:00,
2013-04-21 17:33:00,65.0,60.0,-100.00,ESE,102,3.0,9.0,85,0.00,,,1.09,211.000000,,2013-04-22 03:33:00,
2013-04-21 17:43:00,65.0,60.0,-100.00,ESE,102,3.0,9.0,85,0.00,,,1.09,211.000000,,2013-04-22 03:43:00,
2013-04-21 17:52:00,65.0,60.0,-100.00,ESE,102,3.0,9.0,85,0.00,,,1.09,211.000000,,2013-04-22 03:52:00,
2013-04-21 18:01:00,64.0,63.0,-100.00,SE,130,6.0,8.0,97,0.00,,,-99.99,117.000000,,2013-04-22 04:01:00,
2013-04-21 18:23:00,64.0,63.0,-100.00,SE,130,6.0,8.0,97,0.00,,,-99.99,117.000000,,2013-04-22 04:23:00,
2013-04-21 18:33:00,64.0,63.0,-100.00,SE,130,6.0,8.0,97,0.00,,,-99.99,117.000000,,2013-04-22 04:33:00,
2013-04-21 18:43:00,64.0,63.0,-100.00,SE,130,6.0,8.0,97,0.00,,,-99.99,117.000000,,2013-04-22 04:43:00,
2013-04-21 18:52:00,64.0,63.0,-100.00,SE,130,6.0,8.0,97,0.00,,,-99.99,117.000000,,2013-04-22 04:52:00,
2013-04-21 19:01:00,62.0,62.0,-100.00,ESE,120,4.0,10.0,99,0.00,,,0.92,5.000000,,2013-04-22 05:01:00,
2013-04-21 19:23:00,62.0,62.0,-100.00,ESE,120,4.0,10.0,99,0.00,,,0.92,5.000000,,2013-04-22 05:23:00,
2013-04-21 19:33:00,62.0,62.0,-100.00,ESE,120,4.0,10.0,99,0.00,,,0.92,5.000000,,2013-04-22 05:33:00,
2013-04-21 19:42:00,62.0,62.0,-100.00,ESE,120,4.0,10.0,99,0.00,,,0.92,5.000000,,2013-04-22 05:42:00,
2013-04-21 19:52:00,62.0,62.0,-100.00,ESE,120,4.0,10.0,99,0.00,,,0.92,5.000000,,2013-04-22 05:52:00,
2013-04-21 20:01:00,62.0,62.0,-100.00,ENE,61,4.0,8.0,99,0.00,,,0.85,0.000000,,2013-04-22 06:01:00,
2013-04-21 20:21:00,62.0,62.0,-100.00,ENE,61,4.0,8.0,99,0.00,,,0.85,0.000000,,2013-04-22 06:21:00,
2013-04-21 20:32:00,62.0,62.0,-100.00,ENE,61,4.0,8.0,99,0.00,,,0.85,0.000000,,2013-04-22 06:32:00,
2013-04-21 20:42:00,62.0,62.0,-100.00,ENE,61,4.0,8.0,99,0.00,,,0.85,0.000000,,2013-04-22 06:42:00,
2013-04-21 20:52:00,62.0,62.0,-100.00,ENE,61,4.0,8.0,99,0.00,,,0.85,0.000000,,2013-04-22 06:52:00,
2013-04-21 21:01:00,62.0,61.0,-100.00,NNE,18,5.0,7.0,98,0.00,,,0.85,0.000000,,2013-04-22 07:01:00,
2013-04-21 21:32:00,62.0,61.0,-100.00,NNE,18,5.0,7.0,98,0.00,,,0.85,0.000000,,2013-04-22 07:32:00,
2013-04-21 21:42:00,62.0,61.0,-100.00,NNE,18,5.0,7.0,98,0.00,,,0.85,0.000000,,2013-04-22 07:42:00,
2013-04-21 21:52:00,62.0,61.0,-100.00,NNE,18,5.0,7.0,98,0.00,,,0.85,0.000000,,2013-04-22 07:52:00,
2013-04-21 22:01:00,62.0,61.0,-100.00,ESE,108,3.0,6.0,97,0.00,,,0.85,0.000000,,2013-04-22 08:01:00,
2013-04-21 22:32:00,62.0,61.0,-100.00,ESE,108,3.0,6.0,97,0.00,,,0.85,0.000000,,2013-04-22 08:32:00,
2013-04-21 22:42:00,62.0,61.0,-100.00,ESE,108,3.0,6.0,97,0.00,,,0.85,0.000000,,2013-04-22 08:42:00,
2013-04-21 22:52:00,62.0,61.0,-100.00,ESE,108,3.0,6.0,97,0.00,,,0.85,0.000000,,2013-04-22 08:52:00,
2013-04-21 23:01:00,62.0,61.0,-100.00,NNW,340,1.0,5.0,98,0.00,,,0.85,0.000000,,2013-04-22 09:01:00,
2013-04-21 23:33:00,62.0,61.0,-100.00,NNW,340,1.0,5.0,98,0.00,,,0.85,0.000000,,2013-04-22 09:33:00,
2013-04-21 23:42:00,62.0,61.0,-100.00,NNW,340,1.0,5.0,98,0.00,,,0.85,0.000000,,2013-04-22 09:42:00,
2013-04-21 23:52:00,62.0,61.0,-100.00,NNW,340,1.0,5.0,98,0.00,,,0.85,0.000000,,2013-04-22 09:52:00,